CheckWX is a tool to help pilots better visualize weather data.  It is not intended as a substitute for an official pre-flight weather briefing.

13:01:55 UTC

KMCW METAR
Mason City Municipal Airport
Mason City, Iowa, USA
Current

9 mins ago

KMCW 261253Z AUTO 32020G26KT 10SM CLR 06/01 A3005 RMK AO2 PK WND 33026/1253 SLP174 T00610011
Observed
Apr-26 @ 12:53 UTC
Wind
  • 320° at 20 KTS
  • Gusting to 26 KTS
Visibility
10 SM
Flight Rules
VFR
Cloud Levels
  • Clear skies
Temperature
C / 43°F
Dewpoint
C / 34°F
Humidity
71%
Altimeter
30.05" Hg
Pressure
1017.62 hPa
Previous

1 hour ago

KMCW 261153Z AUTO 31014KT 10SM CLR 04/00 A3003 RMK AO2 SLP167 70018 T00440000 10094 20044 53015
Observed
Apr-26 @ 11:53 UTC
Wind
  • 310° at 14 KTS
Visibility
10 SM
Flight Rules
VFR
Cloud Levels
  • Clear skies
Temperature
C / 39°F
Dewpoint
C / 32°F
Humidity
75%
Altimeter
30.03" Hg
Pressure
1016.92 hPa
24 Hour Rain
0.18"
Previous

2 hours ago

KMCW 261053Z AUTO 31016KT 10SM CLR 04/00 A3001 RMK AO2 SLP159 T00440000
Observed
Apr-26 @ 10:53 UTC
Wind
  • 310° at 16 KTS
Visibility
10 SM
Flight Rules
VFR
Cloud Levels
  • Clear skies
Temperature
C / 39°F
Dewpoint
C / 32°F
Humidity
75%
Altimeter
30.01" Hg
Pressure
1016.22 hPa